sensor_id;sensor_type;location;lat;lon;timestamp;temperature;humidity
8939;DHT22;4504;48.810;9.172;2024-02-28T18:30:27;7.00;99.90
8939;DHT22;4504;48.810;9.172;2024-02-28T18:32:54;7.00;99.90
8939;DHT22;4504;48.810;9.172;2024-02-28T18:35:21;7.10;99.90
8939;DHT22;4504;48.810;9.172;2024-02-28T18:37:48;7.20;99.90
8939;DHT22;4504;48.810;9.172;2024-02-28T18:40:15;7.20;99.90
8939;DHT22;4504;48.810;9.172;2024-02-28T18:42:42;7.30;99.90
8939;DHT22;4504;48.810;9.172;2024-02-28T18:45:10;7.40;99.90
8939;DHT22;4504;48.810;9.172;2024-02-28T18:47:38;7.40;99.90
8939;DHT22;4504;48.810;9.172;2024-02-28T18:50:06;7.50;99.90
8939;DHT22;4504;48.810;9.172;2024-02-28T18:52:34;7.50;99.90
8939;DHT22;4504;48.810;9.172;2024-02-28T18:55:01;7.50;99.90
8939;DHT22;4504;48.810;9.172;2024-02-28T18:57:29;7.60;99.90
8939;DHT22;4504;48.810;9.172;2024-02-28T18:59:56;7.50;99.90
8939;DHT22;4504;48.810;9.172;2024-02-28T19:02:23;7.40;99.90
8939;DHT22;4504;48.810;9.172;2024-02-28T19:04:52;7.50;99.90
8939;DHT22;4504;48.810;9.172;2024-02-28T19:07:21;7.50;99.90
8939;DHT22;4504;48.810;9.172;2024-02-28T19:09:48;7.60;99.90
8939;DHT22;4504;48.810;9.172;2024-02-28T19:12:15;7.60;99.90
8939;DHT22;4504;48.810;9.172;2024-02-28T19:14:42;7.60;99.90
8939;DHT22;4504;48.810;9.172;2024-02-28T19:17:09;7.60;99.90
8939;DHT22;4504;48.810;9.172;2024-02-28T19:19:36;7.60;99.90
8939;DHT22;4504;48.810;9.172;2024-02-28T19:22:04;7.70;99.90
8939;DHT22;4504;48.810;9.172;2024-02-28T19:24:31;7.70;99.90
8939;DHT22;4504;48.810;9.172;2024-02-28T19:26:59;7.70;99.90
8939;DHT22;4504;48.810;9.172;2024-02-28T19:29:26;7.80;99.90
8939;DHT22;4504;48.810;9.172;2024-02-28T19:31:54;7.90;99.90
8939;DHT22;4504;48.810;9.172;2024-02-28T19:34:20;7.90;99.90
8939;DHT22;4504;48.810;9.172;2024-02-28T19:36:48;7.80;99.90
8939;DHT22;4504;48.810;9.172;2024-02-28T19:39:16;7.80;99.90
8939;DHT22;4504;48.810;9.172;2024-02-28T19:41:43;7.70;99.90
8939;DHT22;4504;48.810;9.172;2024-02-28T19:44:10;7.80;99.90
8939;DHT22;4504;48.810;9.172;2024-02-28T19:46:43;7.70;99.90
8939;DHT22;4504;48.810;9.172;2024-02-28T19:49:10;7.80;99.90
8939;DHT22;4504;48.810;9.172;2024-02-28T19:51:37;7.80;99.90
8939;DHT22;4504;48.810;9.172;2024-02-28T19:54:05;7.70;99.90
8939;DHT22;4504;48.810;9.172;2024-02-28T19:56:33;7.80;99.90
8939;DHT22;4504;48.810;9.172;2024-02-28T19:59:01;7.80;99.90
8939;DHT22;4504;48.810;9.172;2024-02-28T20:01:28;7.70;99.90
8939;DHT22;4504;48.810;9.172;2024-02-28T20:03:55;7.80;99.90
8939;DHT22;4504;48.810;9.172;2024-02-28T20:06:23;7.80;99.90
8939;DHT22;4504;48.810;9.172;2024-02-28T20:08:50;7.80;99.90
8939;DHT22;4504;48.810;9.172;2024-02-28T20:11:18;7.80;99.90
8939;DHT22;4504;48.810;9.172;2024-02-28T20:13:47;7.70;99.90
8939;DHT22;4504;48.810;9.172;2024-02-28T20:16:16;7.70;99.90
8939;DHT22;4504;48.810;9.172;2024-02-28T20:18:43;7.70;99.90
8939;DHT22;4504;48.810;9.172;2024-02-28T20:21:10;7.70;99.90
8939;DHT22;4504;48.810;9.172;2024-02-28T20:23:38;7.70;99.90
8939;DHT22;4504;48.810;9.172;2024-02-28T20:26:05;7.60;99.90
8939;DHT22;4504;48.810;9.172;2024-02-28T20:28:32;7.60;99.90
8939;DHT22;4504;48.810;9.172;2024-02-28T20:31:01;7.60;99.90
8939;DHT22;4504;48.810;9.172;2024-02-28T20:33:28;7.60;99.90
8939;DHT22;4504;48.810;9.172;2024-02-28T20:35:55;7.60;99.90
8939;DHT22;4504;48.810;9.172;2024-02-28T20:38:22;7.60;99.90
8939;DHT22;4504;48.810;9.172;2024-02-28T20:40:49;7.50;99.90
8939;DHT22;4504;48.810;9.172;2024-02-28T20:43:16;7.50;99.90
8939;DHT22;4504;48.810;9.172;2024-02-28T20:45:43;7.50;99.90
8939;DHT22;4504;48.810;9.172;2024-02-28T20:48:11;7.50;99.90
8939;DHT22;4504;48.810;9.172;2024-02-28T20:50:38;7.50;99.90
8939;DHT22;4504;48.810;9.172;2024-02-28T20:53:05;7.50;99.90
8939;DHT22;4504;48.810;9.172;2024-02-28T20:55:32;7.50;99.90
8939;DHT22;4504;48.810;9.172;2024-02-28T20:57:59;7.50;99.90
8939;DHT22;4504;48.810;9.172;2024-02-28T21:00:26;7.40;99.90
8939;DHT22;4504;48.810;9.172;2024-02-28T21:02:53;7.40;99.90
8939;DHT22;4504;48.810;9.172;2024-02-28T21:05:21;7.30;99.90
8939;DHT22;4504;48.810;9.172;2024-02-28T21:07:48;7.30;99.90
8939;DHT22;4504;48.810;9.172;2024-02-28T21:10:15;7.30;99.90
8939;DHT22;4504;48.810;9.172;2024-02-28T21:12:42;7.30;99.90
8939;DHT22;4504;48.810;9.172;2024-02-28T21:15:09;7.30;99.90
8939;DHT22;4504;48.810;9.172;2024-02-28T21:17:36;7.30;99.90
8939;DHT22;4504;48.810;9.172;2024-02-28T21:20:05;7.30;99.90
8939;DHT22;4504;48.810;9.172;2024-02-28T21:22:34;7.30;99.90
8939;DHT22;4504;48.810;9.172;2024-02-28T21:25:03;7.30;99.90
8939;DHT22;4504;48.810;9.172;2024-02-28T21:27:30;7.30;99.90
8939;DHT22;4504;48.810;9.172;2024-02-28T21:29:57;7.30;99.90
8939;DHT22;4504;48.810;9.172;2024-02-28T21:32:25;7.30;99.90
8939;DHT22;4504;48.810;9.172;2024-02-28T21:34:52;7.30;99.90
8939;DHT22;4504;48.810;9.172;2024-02-28T21:37:19;7.30;99.90
8939;DHT22;4504;48.810;9.172;2024-02-28T21:39:48;7.30;99.90
8939;DHT22;4504;48.810;9.172;2024-02-28T21:42:15;7.30;99.90
8939;DHT22;4504;48.810;9.172;2024-02-28T21:44:42;7.30;99.90
8939;DHT22;4504;48.810;9.172;2024-02-28T21:47:10;7.30;99.90
8939;DHT22;4504;48.810;9.172;2024-02-28T21:49:40;7.20;99.90
8939;DHT22;4504;48.810;9.172;2024-02-28T21:52:07;7.20;99.90
8939;DHT22;4504;48.810;9.172;2024-02-28T21:54:34;7.10;99.90
8939;DHT22;4504;48.810;9.172;2024-02-28T21:57:02;7.20;99.90
8939;DHT22;4504;48.810;9.172;2024-02-28T21:59:30;7.20;99.90
8939;DHT22;4504;48.810;9.172;2024-02-28T22:01:57;7.10;99.90
8939;DHT22;4504;48.810;9.172;2024-02-28T22:04:24;7.10;99.90
8939;DHT22;4504;48.810;9.172;2024-02-28T22:06:51;7.00;99.90
8939;DHT22;4504;48.810;9.172;2024-02-28T22:09:20;7.00;99.90
8939;DHT22;4504;48.810;9.172;2024-02-28T22:11:47;6.90;99.90
8939;DHT22;4504;48.810;9.172;2024-02-28T22:14:15;6.90;99.90
8939;DHT22;4504;48.810;9.172;2024-02-28T22:16:42;6.80;99.90
8939;DHT22;4504;48.810;9.172;2024-02-28T22:19:09;6.70;99.90
8939;DHT22;4504;48.810;9.172;2024-02-28T22:21:37;6.70;99.90
8939;DHT22;4504;48.810;9.172;2024-02-28T22:24:05;6.60;99.90
8939;DHT22;4504;48.810;9.172;2024-02-28T22:26:33;6.50;99.90
8939;DHT22;4504;48.810;9.172;2024-02-28T22:29:01;6.40;99.90
8939;DHT22;4504;48.810;9.172;2024-02-28T22:31:30;6.30;99.90
8939;DHT22;4504;48.810;9.172;2024-02-28T22:33:57;6.20;99.90
8939;DHT22;4504;48.810;9.172;2024-02-28T22:36:24;6.10;99.90
8939;DHT22;4504;48.810;9.172;2024-02-28T22:38:51;6.00;99.90
8939;DHT22;4504;48.810;9.172;2024-02-28T22:41:21;6.00;99.90
8939;DHT22;4504;48.810;9.172;2024-02-28T22:43:49;5.90;99.90
8939;DHT22;4504;48.810;9.172;2024-02-28T22:46:16;5.90;99.90
8939;DHT22;4504;48.810;9.172;2024-02-28T22:48:44;5.90;99.90
8939;DHT22;4504;48.810;9.172;2024-02-28T22:51:11;5.80;99.90
8939;DHT22;4504;48.810;9.172;2024-02-28T22:53:39;5.80;99.90
8939;DHT22;4504;48.810;9.172;2024-02-28T22:56:06;5.80;99.90
8939;DHT22;4504;48.810;9.172;2024-02-28T22:58:33;5.80;99.90
8939;DHT22;4504;48.810;9.172;2024-02-28T23:01:00;5.80;99.90
8939;DHT22;4504;48.810;9.172;2024-02-28T23:03:26;5.70;99.90
8939;DHT22;4504;48.810;9.172;2024-02-28T23:05:55;5.70;99.90
8939;DHT22;4504;48.810;9.172;2024-02-28T23:08:22;5.70;99.90
8939;DHT22;4504;48.810;9.172;2024-02-28T23:10:49;5.70;99.90
8939;DHT22;4504;48.810;9.172;2024-02-28T23:13:16;5.70;99.90
8939;DHT22;4504;48.810;9.172;2024-02-28T23:15:43;5.60;99.90
8939;DHT22;4504;48.810;9.172;2024-02-28T23:18:10;5.60;99.90
8939;DHT22;4504;48.810;9.172;2024-02-28T23:20:37;5.60;99.90
8939;DHT22;4504;48.810;9.172;2024-02-28T23:23:06;5.60;99.90
8939;DHT22;4504;48.810;9.172;2024-02-28T23:25:33;5.60;99.90
8939;DHT22;4504;48.810;9.172;2024-02-28T23:28:01;5.50;99.90
8939;DHT22;4504;48.810;9.172;2024-02-28T23:30:29;5.50;99.90
8939;DHT22;4504;48.810;9.172;2024-02-28T23:32:56;5.40;99.90
8939;DHT22;4504;48.810;9.172;2024-02-28T23:35:25;5.30;99.90
8939;DHT22;4504;48.810;9.172;2024-02-28T23:37:54;5.30;99.90
8939;DHT22;4504;48.810;9.172;2024-02-28T23:40:22;5.30;99.90
8939;DHT22;4504;48.810;9.172;2024-02-28T23:42:49;5.20;99.90
8939;DHT22;4504;48.810;9.172;2024-02-28T23:45:16;5.20;99.90
8939;DHT22;4504;48.810;9.172;2024-02-28T23:47:43;5.20;99.90
8939;DHT22;4504;48.810;9.172;2024-02-28T23:50:10;5.20;99.90
8939;DHT22;4504;48.810;9.172;2024-02-28T23:52:38;5.10;99.90
8939;DHT22;4504;48.810;9.172;2024-02-28T23:55:05;5.00;99.90
8939;DHT22;4504;48.810;9.172;2024-02-28T23:57:33;4.90;99.90
